createdAt,value
2023-03-19T01:14:05.113Z,15.00
2023-03-19T01:15:11.498Z,15.52
2023-03-19T01:16:17.596Z,15.15
2023-03-19T01:17:20.567Z,15.13
2023-03-19T02:51:31.766Z,16.58
2023-03-19T02:52:39.334Z,17.60
2023-03-19T02:53:46.287Z,13.98
2023-03-19T02:55:02.318Z,11.82
2023-03-19T02:56:10.422Z,12.93
2023-03-19T02:57:14.838Z,13.65
2023-03-19T02:58:24.221Z,13.77
2023-03-19T02:59:27.412Z,12.95
2023-03-19T03:00:30.057Z,11.57
2023-03-19T03:01:37.609Z,14.20
2023-03-19T03:02:43.215Z,17.60
2023-03-19T04:52:09.426Z,15.68
2023-03-19T04:53:13.691Z,14.88
2023-03-19T04:54:22.545Z,13.85
2023-03-19T05:03:17.794Z,13.32
2023-03-19T05:04:28.204Z,12.57
2023-03-19T05:48:02.672Z,19.15
2023-03-19T05:49:10.750Z,19.55
2023-03-19T05:50:14.384Z,17.48
2023-03-19T05:51:29.269Z,12.77
2023-03-19T05:52:37.311Z,14.73
2023-03-19T05:53:48.196Z,12.88
2023-03-19T05:55:31.245Z,14.63
2023-03-19T05:56:44.464Z,13.32
2023-03-19T05:58:11.061Z,17.42
2023-03-19T05:59:14.275Z,24.38
2023-03-19T06:00:28.493Z,18.27
2023-03-19T06:01:40.981Z,17.13
2023-03-19T06:02:52.682Z,16.58
2023-03-19T06:04:23.045Z,14.02
2023-03-19T06:05:26.954Z,28.05
2023-03-19T06:06:40.720Z,32.85
2023-03-19T06:07:46.506Z,15.20
2023-03-19T06:09:04.170Z,13.02
2023-03-19T06:10:13.885Z,15.43
2023-03-19T06:11:16.483Z,13.27
2023-03-19T06:12:49.308Z,13.90
2023-03-19T06:14:12.308Z,13.77
2023-03-19T06:15:45.810Z,14.30
2023-03-19T06:16:58.972Z,14.13
2023-03-19T06:18:04.607Z,11.60
2023-03-19T06:19:16.322Z,12.15
2023-03-19T06:21:44.186Z,10.80
2023-03-19T06:22:53.871Z,13.50
2023-03-19T06:27:52.235Z,14.18
2023-03-19T06:33:17.890Z,11.60
2023-03-19T06:34:36.324Z,12.73
2023-03-19T06:35:52.996Z,12.77
2023-03-19T06:37:17.449Z,13.48
2023-03-19T06:38:22.402Z,12.68
2023-03-19T06:41:33.610Z,13.27
2023-03-19T06:46:26.783Z,13.65
2023-03-19T06:50:35.694Z,13.83
2023-03-19T06:51:47.608Z,16.45
2023-03-19T06:54:27.254Z,18.02
2023-03-19T06:55:43.815Z,14.95
2023-03-19T07:22:43.731Z,10.02
2023-03-19T07:26:47.778Z,18.35
2023-03-19T07:27:54.866Z,15.15
2023-03-19T07:28:58.346Z,12.50
2023-03-19T07:30:13.364Z,11.85
2023-03-19T07:31:49.217Z,14.82
2023-03-19T07:32:51.642Z,11.60
2023-03-19T07:33:54.832Z,12.85
2023-03-19T07:34:56.862Z,10.68
2023-03-19T07:35:59.035Z,10.40
2023-03-19T07:37:01.545Z,10.77
2023-03-19T07:38:03.787Z,11.23
2023-03-19T07:39:06.167Z,11.93
2023-03-19T07:40:10.862Z,11.07
2023-03-19T07:41:12.916Z,14.35
2023-03-19T07:42:15.399Z,11.35
2023-03-19T07:44:55.690Z,10.60
2023-03-19T07:45:58.646Z,15.45
2023-03-19T07:47:00.921Z,12.63
2023-03-19T07:48:03.970Z,12.73
2023-03-19T07:49:06.065Z,13.02
2023-03-19T07:50:08.947Z,10.40
2023-03-19T07:51:11.052Z,13.70
2023-03-19T07:52:15.154Z,8.63
2023-03-19T07:53:17.523Z,9.57
2023-03-19T07:54:19.735Z,11.95
2023-03-19T07:55:25.233Z,11.85
2023-03-19T07:56:29.254Z,8.32
2023-03-19T07:57:35.764Z,18.88
2023-03-19T07:58:39.891Z,10.95
2023-03-19T07:59:42.463Z,9.23
2023-03-19T08:00:45.702Z,11.73
2023-03-19T08:01:48.387Z,12.40
2023-03-19T08:02:50.867Z,13.13
2023-03-19T08:03:52.965Z,15.02
2023-03-19T08:04:56.203Z,11.52
2023-03-19T08:05:58.142Z,14.73
2023-03-19T08:07:00.830Z,14.25
2023-03-19T08:08:02.787Z,18.10
2023-03-19T08:09:05.872Z,16.63
2023-03-19T08:10:08.885Z,21.50
2023-03-19T08:11:11.052Z,19.73
2023-03-19T08:12:14.124Z,20.65
2023-03-19T08:13:16.865Z,17.33
2023-03-19T08:17:35.294Z,20.60
2023-03-19T08:19:08.487Z,17.02
2023-03-19T08:23:30.695Z,16.67
2023-03-19T08:37:12.908Z,18.23
2023-03-19T08:38:57.540Z,16.17
2023-03-19T08:43:47.651Z,18.60
2023-03-19T08:49:05.736Z,21.95
2023-03-19T08:51:43.633Z,21.42
2023-03-19T08:53:51.286Z,23.15
2023-03-19T08:55:50.147Z,25.08
2023-03-19T09:01:49.862Z,36.20
2023-03-19T09:03:21.910Z,28.25
2023-03-19T09:04:38.558Z,27.45
2023-03-19T09:06:14.223Z,32.20
2023-03-19T09:09:14.676Z,27.63
2023-03-19T09:13:22.988Z,24.13
2023-03-19T09:16:19.239Z,23.15
2023-03-19T09:17:45.193Z,21.30
2023-03-19T09:18:51.524Z,19.95
2023-03-19T09:20:41.542Z,18.40
2023-03-19T09:22:28.792Z,18.83
2023-03-19T09:29:56.966Z,18.70
2023-03-19T09:31:27.237Z,16.52
2023-03-19T09:32:34.522Z,17.45
2023-03-19T09:33:50.101Z,16.88
2023-03-19T09:34:57.594Z,19.85
2023-03-19T09:36:08.818Z,18.42
2023-03-19T09:37:13.384Z,15.23
2023-03-19T09:38:20.681Z,18.15
2023-03-19T09:39:30.365Z,15.85
2023-03-19T09:43:02.003Z,18.67
2023-03-19T09:44:42.408Z,15.38
2023-03-19T09:45:47.122Z,13.05
2023-03-19T09:47:31.575Z,12.07
2023-03-19T09:48:58.058Z,12.60
2023-03-19T09:50:24.270Z,12.70
2023-03-19T09:51:59.055Z,14.45
2023-03-19T09:53:27.504Z,21.73
2023-03-19T09:58:20.816Z,18.90
2023-03-19T10:00:15.215Z,25.65
2023-03-19T10:01:51.591Z,22.55
2023-03-19T10:03:45.301Z,26.08
2023-03-19T10:05:28.462Z,22.85
2023-03-19T10:06:39.509Z,24.95
2023-03-19T10:08:06.119Z,23.85
2023-03-19T10:09:43.351Z,29.67
2023-03-19T10:11:17.618Z,19.88
2023-03-19T10:14:39.266Z,13.27
2023-03-19T10:15:47.658Z,12.23
2023-03-19T10:17:05.877Z,11.05
2023-03-19T10:18:30.557Z,11.55
2023-03-19T10:20:04.396Z,10.35
2023-03-19T10:21:47.453Z,12.00
2023-03-19T10:23:09.243Z,11.57
2023-03-19T10:24:23.568Z,11.63
2023-03-19T10:25:41.781Z,10.95
2023-03-19T10:26:51.449Z,11.98
2023-03-19T10:28:08.032Z,14.10
2023-03-19T10:29:29.367Z,15.65
2023-03-19T10:30:38.577Z,14.20
2023-03-19T10:32:08.052Z,13.57
2023-03-19T10:33:26.780Z,14.25
2023-03-19T10:34:32.940Z,14.32
2023-03-19T10:35:57.896Z,14.50
2023-03-19T10:37:25.362Z,14.57
2023-03-19T10:38:32.581Z,14.50
2023-03-19T10:39:51.307Z,13.27
2023-03-19T10:41:33.186Z,15.40
2023-03-19T10:43:07.057Z,14.18
2023-03-19T10:44:37.721Z,15.73
2023-03-19T10:46:30.058Z,14.88
2023-03-19T10:47:38.747Z,16.98
2023-03-19T10:48:48.355Z,15.48
2023-03-19T10:50:07.401Z,15.93
2023-03-19T10:51:23.546Z,16.55
2023-03-19T10:52:34.158Z,14.45
2023-03-19T10:54:20.503Z,14.75
2023-03-19T10:55:30.485Z,15.25
2023-03-19T10:56:36.882Z,16.38
2023-03-19T10:57:45.119Z,23.02
2023-03-19T11:01:51.687Z,22.35
2023-03-19T11:06:43.053Z,17.40
2023-03-19T11:10:28.869Z,16.50
2023-03-19T11:14:14.071Z,15.82
2023-03-19T11:18:03.758Z,16.80
2023-03-19T11:19:24.854Z,18.55
2023-03-19T11:20:39.142Z,16.75
2023-03-19T11:21:46.143Z,17.17
2023-03-19T11:23:42.483Z,16.85
2023-03-19T11:34:57.560Z,15.80
2023-03-19T11:36:15.994Z,17.10
2023-03-19T11:37:43.909Z,16.05
2023-03-19T11:39:19.397Z,15.85
2023-03-19T11:41:11.005Z,17.40
2023-03-19T11:42:56.574Z,15.88
2023-03-19T11:44:24.129Z,15.82
2023-03-19T11:45:56.722Z,15.57
2023-03-19T11:48:21.362Z,15.85
2023-03-19T11:50:41.955Z,12.80
2023-03-19T11:52:52.041Z,15.70
2023-03-19T11:54:32.978Z,16.98
2023-03-19T11:56:24.112Z,12.85
2023-03-19T11:58:19.480Z,14.73
2023-03-19T12:00:14.765Z,15.13
2023-03-19T12:07:18.794Z,12.82
2023-03-19T12:09:15.652Z,15.98
2023-03-19T12:20:39.412Z,15.57
2023-03-19T12:22:27.823Z,15.70
2023-03-19T12:24:02.498Z,15.20
2023-03-19T12:25:43.444Z,14.45
2023-03-19T12:36:58.878Z,13.07
2023-03-19T12:38:40.454Z,12.30
2023-03-19T12:40:06.160Z,16.55
2023-03-19T12:41:47.013Z,14.45
2023-03-19T12:43:04.841Z,13.27
2023-03-19T12:45:07.530Z,12.68
2023-03-19T12:46:49.080Z,12.10
2023-03-19T12:48:11.533Z,17.10
2023-03-19T12:49:41.759Z,17.35
2023-03-19T12:51:24.779Z,16.63
2023-03-19T12:54:48.769Z,19.08
2023-03-19T12:56:38.845Z,12.05
2023-03-19T13:00:22.405Z,12.93
2023-03-19T13:02:56.156Z,13.50
2023-03-19T13:04:14.275Z,10.80
2023-03-19T13:05:34.550Z,14.13
2023-03-19T13:06:57.879Z,12.30
2023-03-19T13:08:11.038Z,20.30
2023-03-19T13:12:21.901Z,14.63
2023-03-19T13:14:03.128Z,14.65
2023-03-19T13:15:36.594Z,15.95
2023-03-19T13:17:00.605Z,15.25
2023-03-19T13:19:08.820Z,17.83
2023-03-19T13:20:23.547Z,13.70
2023-03-19T13:21:36.422Z,13.32
2023-03-19T13:22:41.838Z,13.20
2023-03-19T13:23:50.790Z,17.13
2023-03-19T13:25:00.701Z,16.52
2023-03-19T13:26:10.564Z,14.52
2023-03-19T13:27:30.300Z,18.45
2023-03-19T13:28:36.366Z,13.57
2023-03-19T13:30:08.466Z,13.00
2023-03-19T13:31:27.643Z,15.13
2023-03-19T13:32:41.515Z,13.57
2023-03-19T13:34:09.707Z,15.20
2023-03-19T13:35:27.794Z,12.73
2023-03-19T13:36:39.928Z,13.77
2023-03-19T13:37:44.514Z,13.73
2023-03-19T13:38:56.619Z,15.27
2023-03-19T13:40:05.815Z,15.38
2023-03-19T13:41:33.260Z,13.52
2023-03-19T13:42:43.448Z,15.15
2023-03-19T13:43:54.242Z,14.07
2023-03-19T13:45:32.339Z,14.43
2023-03-19T13:46:41.820Z,14.05
2023-03-19T13:47:45.735Z,13.27
2023-03-19T13:48:53.766Z,15.38
2023-03-19T13:50:45.684Z,12.65
2023-03-19T13:52:05.306Z,14.60
2023-03-19T13:53:37.443Z,19.80
2023-03-19T13:54:46.161Z,15.70
2023-03-19T13:56:02.952Z,14.38
2023-03-19T13:57:18.468Z,13.80
2023-03-19T13:58:46.097Z,16.13
2023-03-19T13:59:51.019Z,14.15
2023-03-19T14:00:59.194Z,11.98
2023-03-19T14:02:27.350Z,14.40
2023-03-19T14:03:37.509Z,14.52
2023-03-19T14:04:54.169Z,15.60
2023-03-19T14:06:02.467Z,14.23
2023-03-19T14:07:23.153Z,14.18
2023-03-19T14:08:34.124Z,14.93
2023-03-19T14:10:02.586Z,16.15
2023-03-19T14:11:08.953Z,14.38
2023-03-19T14:12:22.582Z,14.93
2023-03-19T14:13:34.982Z,16.08
2023-03-19T14:15:20.538Z,16.20
2023-03-19T14:16:30.352Z,13.07
2023-03-19T14:18:04.259Z,14.55
2023-03-19T14:19:12.786Z,13.88
2023-03-19T14:20:24.699Z,14.85
2023-03-19T14:21:47.282Z,12.13
2023-03-19T14:22:59.038Z,14.27
2023-03-19T14:24:56.679Z,15.18
2023-03-19T14:26:27.603Z,15.30
2023-03-19T14:27:33.639Z,13.93
2023-03-19T14:28:46.306Z,16.90
2023-03-19T14:29:51.576Z,13.45
2023-03-19T14:30:58.555Z,14.85
2023-03-19T14:32:11.093Z,14.07
2023-03-19T14:33:30.138Z,13.73
2023-03-19T14:34:43.870Z,11.45
2023-03-19T14:35:49.131Z,13.68
2023-03-19T14:37:17.811Z,12.23
2023-03-19T14:38:38.180Z,16.98
2023-03-19T14:39:46.567Z,15.85
2023-03-19T14:40:53.763Z,16.25
2023-03-19T14:42:14.313Z,18.77
2023-03-19T14:43:28.622Z,16.40
2023-03-19T14:45:12.821Z,16.30
2023-03-19T14:46:24.544Z,15.77
2023-03-19T14:47:53.037Z,16.42
2023-03-19T14:49:21.167Z,14.20
2023-03-19T14:50:55.074Z,12.80
2023-03-19T14:52:26.043Z,16.67
2023-03-19T14:53:59.094Z,18.38
2023-03-19T14:55:03.929Z,14.32
2023-03-19T14:56:23.571Z,17.10
2023-03-19T14:57:37.008Z,15.18
2023-03-19T14:58:51.957Z,14.25
2023-03-19T14:59:55.142Z,15.20
2023-03-19T15:00:59.582Z,14.43
2023-03-19T15:05:59.772Z,14.98
2023-03-19T15:11:21.709Z,17.33
2023-03-19T15:12:46.397Z,17.20
2023-03-19T15:14:15.149Z,12.95
2023-03-19T15:15:28.595Z,17.75
2023-03-19T15:16:48.993Z,17.73
2023-03-19T15:18:04.138Z,15.45
2023-03-19T15:19:12.297Z,18.92
2023-03-19T15:20:29.132Z,15.55
2023-03-19T15:21:35.357Z,20.13
2023-03-19T15:22:38.654Z,18.05
2023-03-19T15:23:45.846Z,16.92
2023-03-19T15:24:53.530Z,14.70
2023-03-19T15:26:05.049Z,16.75
2023-03-19T15:27:23.536Z,16.88
2023-03-19T15:28:28.531Z,16.67
2023-03-19T15:29:37.841Z,15.03
2023-03-19T15:30:53.909Z,20.90
2023-03-19T15:32:05.301Z,18.88
2023-03-19T15:33:39.481Z,18.45
2023-03-19T15:35:05.724Z,16.85
2023-03-19T15:36:34.928Z,17.35
2023-03-19T15:37:51.193Z,18.95
2023-03-19T15:39:18.741Z,19.23
2023-03-19T15:40:34.408Z,19.30
2023-03-19T15:41:45.060Z,18.10
2023-03-19T15:43:01.500Z,18.58
2023-03-19T15:44:13.737Z,18.77
2023-03-19T15:45:24.639Z,22.77
2023-03-19T15:46:32.895Z,18.65
2023-03-19T15:47:47.859Z,21.65
2023-03-19T15:49:11.740Z,19.95
2023-03-19T15:50:22.279Z,16.02
2023-03-19T15:51:28.852Z,30.80
2023-03-19T15:52:41.686Z,26.55
2023-03-19T15:53:52.948Z,18.30
2023-03-19T15:55:05.427Z,16.53
2023-03-19T15:56:15.924Z,19.52
2023-03-19T15:57:34.364Z,19.67
2023-03-19T15:58:42.048Z,18.23
2023-03-19T15:59:47.888Z,21.55
2023-03-19T16:00:59.771Z,20.98
2023-03-19T16:02:29.740Z,34.38
2023-03-19T16:03:42.701Z,28.55
2023-03-19T16:25:30.445Z,19.73
2023-03-19T16:26:48.304Z,19.48
2023-03-19T16:27:52.496Z,19.33
2023-03-19T16:29:05.936Z,17.33
2023-03-19T16:30:22.734Z,18.17
2023-03-19T16:31:32.216Z,16.63
2023-03-19T16:32:37.221Z,16.42
2023-03-19T16:33:39.166Z,18.33
2023-03-19T16:34:49.548Z,19.50
2023-03-19T16:35:54.135Z,21.35
2023-03-19T16:37:00.297Z,17.27
2023-03-19T16:38:43.732Z,17.65
2023-03-19T16:39:57.231Z,20.85
2023-03-19T16:41:14.548Z,21.85
2023-03-19T16:42:37.125Z,19.95
2023-03-19T16:43:46.406Z,22.13
2023-03-19T16:44:50.451Z,22.73
2023-03-19T16:46:09.689Z,19.63
2023-03-19T16:47:18.352Z,19.98
2023-03-19T16:48:30.718Z,18.10
2023-03-19T16:49:42.755Z,16.63
2023-03-19T16:50:48.732Z,19.80
2023-03-19T16:51:55.386Z,20.48
2023-03-19T16:53:16.977Z,26.63
2023-03-19T16:54:36.347Z,22.90
2023-03-19T16:55:41.512Z,19.92
2023-03-19T16:56:43.675Z,23.90
2023-03-19T16:57:49.032Z,19.00
2023-03-19T16:58:56.714Z,17.80
2023-03-19T16:59:59.194Z,19.42
2023-03-19T17:01:02.142Z,18.25
2023-03-19T17:02:16.837Z,18.42
2023-03-19T17:03:21.468Z,25.35
2023-03-19T17:04:25.880Z,17.52
2023-03-19T17:05:35.549Z,20.10
2023-03-19T17:06:38.132Z,20.98
2023-03-19T17:07:52.794Z,22.73
2023-03-19T17:10:31.793Z,22.00
2023-03-19T17:11:42.469Z,18.10
2023-03-19T17:12:46.891Z,17.17
2023-03-19T17:13:49.349Z,22.58
2023-03-19T17:14:52.785Z,33.35
2023-03-19T17:15:57.418Z,26.45
2023-03-19T17:16:59.453Z,24.02
2023-03-19T17:18:04.063Z,32.72
2023-03-19T17:19:18.362Z,33.92
2023-03-19T17:20:44.681Z,37.08
2023-03-19T17:21:50.803Z,27.27
2023-03-19T17:23:01.546Z,30.00
2023-03-19T17:32:07.098Z,29.77
2023-03-19T17:33:37.421Z,24.52
